Archival Weather

Norman Y Mineta San Jose Intl

San Jose, California (KSJC)

Report from: Wednesday, April 3, 2024 9:21 AM PDT
Current time: Tuesday, May 21, 2024 9:11 AM PDT

Current weather – Weather history – Daily summaries
Weather forecast

Temperature13.3°C (55.9°F)
Dew point9.4°C (48.9°F)
Winds Calm
Visibility9 mi. (14.5 km)
Clouds Few clouds 500 ft. (152 m)
Scattered clouds 1,300 ft. (396 m)
Ceiling: Broken clouds 1,500 ft. (457 m)
Altimeter30.21 in.Hg (1023 mB)
Relative humidity77 %
Density altitude-364 ft. (-111 m)
Remarks Automated weather observing station with precipitation discriminator
Flight conditions Marginal Visual Meteorological Conditions
Raw dataKSJC 031621Z 00000KT 9SM FEW005 SCT013 BKN015 13/09 A3021 RMK AO2 T01330094
An error has occurred. This application may no longer respond until reloaded. Reload 🗙